Time;durP1;ratioP1;P1;durP2;ratioP2;P2;SDS_P1;SDS_P2;PMS_P1;PMS_P2;Temp;Humidity;BMP_temperature;BMP_pressure;BME280_temperature;BME280_humidity;BME280_pressure;Samples;Min_cycle;Max_cycle;Signal;HPM_P1;HPM_P2
2021/06/12 00:01:25;;;;;;;3.63;3.33;;;19.90;63.00;;;;;;5113864;28;20099;-70
2021/06/12 00:03:51;;;;;;;6.95;3.90;;;19.90;63.10;;;;;;5113744;28;20074;-70
2021/06/12 00:06:16;;;;;;;4.47;3.75;;;19.80;63.40;;;;;;5113774;28;20159;-70
2021/06/12 00:08:42;;;;;;;8.40;4.03;;;19.80;63.60;;;;;;5113667;28;20055;-70
2021/06/12 00:11:08;;;;;;;4.35;3.65;;;19.80;63.70;;;;;;5113739;28;20024;-70
2021/06/12 00:13:34;;;;;;;9.90;3.90;;;19.80;63.90;;;;;;5112293;28;20030;-69
2021/06/12 00:16:00;;;;;;;4.57;3.55;;;19.80;63.80;;;;;;5113610;28;20574;-70
2021/06/12 00:18:26;;;;;;;6.65;3.65;;;19.80;63.80;;;;;;5103903;28;20106;-70
2021/06/12 00:20:56;;;;;;;4.65;3.60;;;19.80;63.60;;;;;;5091929;28;20070;-70
2021/06/12 00:23:22;;;;;;;4.63;3.50;;;19.70;63.50;;;;;;5093219;28;20035;-70
2021/06/12 00:25:48;;;;;;;3.17;2.88;;;19.70;63.40;;;;;;5093071;28;20569;-70
2021/06/12 00:28:14;;;;;;;4.43;3.60;;;19.70;63.40;;;;;;5096321;28;20098;-70
2021/06/12 00:30:39;;;;;;;4.47;3.47;;;19.70;63.30;;;;;;5113470;28;20032;-70
2021/06/12 00:33:05;;;;;;;2.72;2.50;;;19.60;63.20;;;;;;5109276;28;20077;-69
2021/06/12 00:35:32;;;;;;;3.20;2.90;;;19.60;63.10;;;;;;5091768;28;20032;-70
2021/06/12 00:37:58;;;;;;;5.38;2.85;;;19.60;63.20;;;;;;5093000;28;20016;-69
2021/06/12 00:40:24;;;;;;;3.72;3.05;;;19.50;63.10;;;;;;5093021;28;20023;-70
2021/06/12 00:42:51;;;;;;;4.68;2.75;;;19.50;63.10;;;;;;5092307;28;20085;-70
2021/06/12 00:45:21;;;;;;;3.03;2.42;;;19.50;63.10;;;;;;5091626;28;20522;-70
2021/06/12 00:47:48;;;;;;;3.60;2.88;;;19.50;63.20;;;;;;5092965;28;20046;-70
2021/06/12 00:50:16;;;;;;;3.47;2.90;;;19.40;63.20;;;;;;5110223;28;20039;-69
2021/06/12 00:52:42;;;;;;;10.18;3.60;;;19.40;63.30;;;;;;5111796;28;20024;-70
2021/06/12 00:55:12;;;;;;;4.88;3.40;;;19.40;63.50;;;;;;5112230;28;20362;-70
2021/06/12 00:57:38;;;;;;;3.70;2.83;;;19.30;63.70;;;;;;5113225;28;20024;-70
2021/06/12 01:00:06;;;;;;;13.02;3.70;;;19.30;64.00;;;;;;5113297;28;20117;-70
2021/06/12 01:02:33;;;;;;;4.70;2.85;;;19.30;64.00;;;;;;5113199;28;20020;-70
2021/06/12 01:04:59;;;;;;;5.57;2.97;;;19.30;63.80;;;;;;5113153;28;20028;-70
2021/06/12 01:07:27;;;;;;;7.22;3.20;;;19.20;64.10;;;;;;5112995;28;20020;-70
2021/06/12 01:09:52;;;;;;;7.05;3.72;;;19.20;64.40;;;;;;5106162;28;20039;-70
2021/06/12 01:12:22;;;;;;;5.90;4.03;;;19.20;64.80;;;;;;5111788;28;20195;-70
2021/06/12 01:14:56;;;;;;;6.68;3.67;;;19.20;65.00;;;;;;5115098;28;20477;-70
2021/06/12 01:17:25;;;;;;;;;;;19.10;65.30;;;;;;5116696;28;20062;-70
2021/06/12 01:19:53;;;;;;;4.60;3.40;;;19.20;64.50;;;;;;5116809;28;19926;-70
2021/06/12 01:22:31;;;;;;;5.47;3.80;;;19.10;65.10;;;;;;5116866;28;20020;-70
2021/06/12 01:25:07;;;;;;;12.38;3.42;;;19.10;65.10;;;;;;5116576;28;20039;-69
2021/06/12 01:27:51;;;;;;;4.20;3.60;;;19.10;64.90;;;;;;5111436;28;20031;-69
2021/06/12 01:30:22;;;;;;;7.18;3.67;;;19.10;65.30;;;;;;5096266;28;20020;-70
2021/06/12 01:32:54;;;;;;;5.35;3.65;;;19.00;65.30;;;;;;5094839;28;20030;-70
2021/06/12 01:35:24;;;;;;;7.47;3.33;;;19.00;65.40;;;;;;5096171;28;20095;-69
2021/06/12 01:37:51;;;;;;;4.93;3.47;;;19.00;65.50;;;;;;5095669;28;20073;-70
2021/06/12 01:40:20;;;;;;;11.02;3.63;;;19.00;65.40;;;;;;5096051;28;20016;-70
2021/06/12 01:42:48;;;;;;;5.15;3.22;;;18.90;65.20;;;;;;5096047;28;20474;-70
2021/06/12 01:45:14;;;;;;;3.92;3.40;;;19.00;65.20;;;;;;5096065;28;20020;-70
2021/06/12 01:47:41;;;;;;;18.10;3.97;;;18.90;65.10;;;;;;5104892;28;20496;-70
2021/06/12 01:50:09;;;;;;;3.20;2.90;;;18.90;64.90;;;;;;5116177;28;20040;-70
2021/06/12 01:52:38;;;;;;;7.95;3.65;;;18.90;64.80;;;;;;5116035;28;20465;-70
2021/06/12 01:55:04;;;;;;;3.30;3.00;;;18.90;64.90;;;;;;5116224;28;20470;-70
2021/06/12 01:57:31;;;;;;;3.90;3.22;;;18.80;64.80;;;;;;5116199;27;20027;-70
2021/06/12 01:59:58;;;;;;;4.13;3.00;;;18.80;64.90;;;;;;5116138;28;20023;-69
2021/06/12 02:02:24;;;;;;;5.65;3.13;;;18.80;65.60;;;;;;5116143;28;20473;-69
2021/06/12 02:04:55;;;;;;;7.88;3.72;;;18.80;64.70;;;;;;5115990;28;20380;-70
2021/06/12 02:07:22;;;;;;;5.93;3.28;;;18.80;64.60;;;;;;5115893;28;20031;-69
2021/06/12 02:09:51;;;;;;;3.53;3.15;;;18.80;64.60;;;;;;5115853;28;20026;-70
2021/06/12 02:12:18;;;;;;;4.75;3.13;;;18.80;64.60;;;;;;5115964;28;20046;-69
2021/06/12 02:14:44;;;;;;;3.60;3.30;;;18.70;64.50;;;;;;5115694;28;20051;-70
2021/06/12 02:17:11;;;;;;;4.95;3.35;;;18.70;64.50;;;;;;5115803;28;20023;-69
2021/06/12 02:19:39;;;;;;;4.45;3.40;;;18.60;64.60;;;;;;5115739;28;20423;-70
2021/06/12 02:22:07;;;;;;;4.72;3.50;;;18.60;64.70;;;;;;5114417;28;20016;-69
2021/06/12 02:24:33;;;;;;;5.03;3.85;;;18.60;65.00;;;;;;5115664;28;20026;-69
2021/06/12 02:27:04;;;;;;;4.60;3.70;;;18.60;65.10;;;;;;5114455;28;20059;-70
2021/06/12 02:29:30;;;;;;;4.93;3.40;;;18.60;65.10;;;;;;5115537;27;20020;-70
2021/06/12 02:32:05;;;;;;;5.72;3.42;;;18.60;65.20;;;;;;5115484;28;20051;-70
2021/06/12 02:34:33;;;;;;;3.15;2.85;;;18.50;65.10;;;;;;5115495;28;20031;-70
2021/06/12 02:36:59;;;;;;;3.22;2.92;;;18.50;65.00;;;;;;5105834;28;20434;-70
2021/06/12 02:39:25;;;;;;;3.13;2.70;;;18.50;65.00;;;;;;5094996;28;20074;-70
2021/06/12 02:41:51;;;;;;;5.05;3.65;;;18.40;65.00;;;;;;5094934;28;20024;-70
2021/06/12 02:44:17;;;;;;;7.00;3.67;;;18.40;65.00;;;;;;5094869;28;20044;-70
2021/06/12 02:46:45;;;;;;;3.83;3.42;;;18.40;65.20;;;;;;5107250;28;20062;-69
2021/06/12 02:49:18;;;;;;;5.00;3.20;;;18.40;65.20;;;;;;5113916;28;20480;-69
2021/06/12 02:52:00;;;;;;;6.00;4.00;;;18.40;65.30;;;;;;5115211;28;20179;-70
2021/06/12 02:54:27;;;;;;;4.13;3.47;;;18.40;65.80;;;;;;5115048;28;20024;-69
2021/06/12 02:56:56;;;;;;;3.75;3.35;;;18.40;65.90;;;;;;5113695;28;20023;-70
2021/06/12 02:59:23;;;;;;;5.43;3.78;;;18.40;66.00;;;;;;5101728;28;20099;-70
2021/06/12 03:01:51;;;;;;;3.85;3.22;;;18.40;66.20;;;;;;5094529;28;20024;-69
2021/06/12 03:04:19;;;;;;;3.42;3.08;;;18.40;66.10;;;;;;5092545;28;20035;-69
2021/06/12 03:06:47;;;;;;;6.60;3.22;;;18.40;66.00;;;;;;5093945;28;20027;-69
2021/06/12 03:09:15;;;;;;;4.90;3.47;;;18.50;65.90;;;;;;5093929;28;20024;-70
2021/06/12 03:11:42;;;;;;;4.80;3.55;;;18.50;66.00;;;;;;5094224;28;20035;-70
2021/06/12 03:14:11;;;;;;;5.35;4.15;;;18.50;66.10;;;;;;5094144;28;20058;-69
2021/06/12 03:16:41;;;;;;;8.85;4.15;;;18.50;66.30;;;;;;5094166;28;20012;-69
2021/06/12 03:19:09;;;;;;;5.82;3.92;;;18.60;66.40;;;;;;5093747;28;20024;-70
2021/06/12 03:21:37;;;;;;;4.45;3.95;;;18.60;66.40;;;;;;5093978;28;20067;-70
2021/06/12 03:24:05;;;;;;;6.55;4.35;;;18.60;66.30;;;;;;5093861;28;20024;-70
2021/06/12 03:26:33;;;;;;;6.43;4.10;;;18.60;66.20;;;;;;5093941;28;20421;-69
2021/06/12 03:29:02;;;;;;;7.53;4.68;;;18.60;66.20;;;;;;5092676;28;20051;-70
2021/06/12 03:31:29;;;;;;;7.03;4.10;;;18.60;66.10;;;;;;5093973;28;20103;-69
2021/06/12 03:33:55;;;;;;;5.53;4.05;;;18.70;66.10;;;;;;5093811;28;20024;-70
2021/06/12 03:36:23;;;;;;;6.10;3.70;;;18.70;66.00;;;;;;5093655;28;20016;-69
2021/06/12 03:38:49;;;;;;;8.65;3.92;;;18.70;65.80;;;;;;5093673;28;20027;-69
2021/06/12 03:41:15;;;;;;;5.07;3.78;;;18.70;65.80;;;;;;5093923;28;20012;-70
2021/06/12 03:43:41;;;;;;;5.40;4.15;;;18.80;66.00;;;;;;5093684;28;20024;-69
2021/06/12 03:46:08;;;;;;;4.78;3.65;;;18.80;66.00;;;;;;5113429;28;20028;-70
2021/06/12 03:48:35;;;;;;;4.60;4.00;;;18.80;66.00;;;;;;5113607;28;20054;-70
2021/06/12 03:51:02;;;;;;;5.45;4.15;;;18.80;66.00;;;;;;5105903;28;20040;-70
2021/06/12 03:53:31;;;;;;;4.65;3.92;;;18.90;66.00;;;;;;5093196;28;20431;-70
2021/06/12 03:55:59;;;;;;;5.68;4.13;;;19.00;65.90;;;;;;5093549;28;20157;-70
2021/06/12 03:58:26;;;;;;;4.20;3.80;;;19.00;65.60;;;;;;5093388;28;20047;-70
2021/06/12 04:00:53;;;;;;;10.68;4.10;;;19.00;65.50;;;;;;5093259;28;20024;-70
2021/06/12 04:03:19;;;;;;;5.82;4.57;;;19.10;65.40;;;;;;5093322;28;20117;-70
2021/06/12 04:05:44;;;;;;;5.03;4.53;;;19.10;65.30;;;;;;5093401;28;20095;-70
2021/06/12 04:08:11;;;;;;;6.95;4.32;;;19.10;65.00;;;;;;5093125;28;20624;-70
2021/06/12 04:10:36;;;;;;;6.13;4.82;;;19.20;65.10;;;;;;5092011;28;20027;-70
2021/06/12 04:13:02;;;;;;;11.10;6.00;;;19.20;65.20;;;;;;5093212;28;20027;-70
2021/06/12 04:15:28;;;;;;;5.85;5.25;;;19.30;65.10;;;;;;5093243;28;20213;-70
2021/06/12 04:18:07;;;;;;;5.35;4.82;;;19.30;64.90;;;;;;5093154;28;20035;-70
2021/06/12 04:20:33;;;;;;;7.13;5.45;;;19.40;64.90;;;;;;5093260;28;20028;-69
2021/06/12 04:22:59;;;;;;;4.82;4.30;;;19.50;64.90;;;;;;5091857;28;20032;-70
2021/06/12 04:25:25;;;;;;;6.20;5.00;;;19.60;64.70;;;;;;5092709;28;20077;-70
2021/06/12 04:27:50;;;;;;;5.03;4.53;;;19.70;64.40;;;;;;5091681;28;20488;-70
2021/06/12 04:30:19;;;;;;;4.97;4.47;;;19.70;64.30;;;;;;5093132;28;20091;-70
2021/06/12 04:32:45;;;;;;;8.25;5.22;;;19.80;64.20;;;;;;5091651;28;20032;-69
2021/06/12 04:35:12;;;;;;;6.50;4.93;;;19.90;64.10;;;;;;5093040;28;20099;-70
2021/06/12 04:37:38;;;;;;;9.75;5.57;;;20.00;63.80;;;;;;5091534;28;20028;-70
2021/06/12 04:40:05;;;;;;;7.90;5.25;;;20.10;63.50;;;;;;5092969;28;20027;-70
2021/06/12 04:42:30;;;;;;;5.82;4.43;;;20.10;63.20;;;;;;5093953;28;20428;-70
2021/06/12 04:44:56;;;;;;;8.88;6.13;;;20.20;63.40;;;;;;5113317;28;20032;-69
2021/06/12 04:47:22;;;;;;;11.70;5.38;;;20.40;63.30;;;;;;5099185;28;20028;-70
2021/06/12 04:49:48;;;;;;;7.32;5.35;;;20.50;63.20;;;;;;5094761;28;20130;-70
2021/06/12 04:52:14;;;;;;;8.60;5.05;;;20.60;62.80;;;;;;5095874;28;20024;-70
2021/06/12 04:54:40;;;;;;;9.70;5.03;;;20.70;62.10;;;;;;5096577;28;20077;-70
2021/06/12 04:57:06;;;;;;;9.52;4.90;;;20.70;61.90;;;;;;5096992;28;20020;-70
2021/06/12 04:59:32;;;;;;;7.78;4.32;;;20.80;61.30;;;;;;5096448;28;20358;-70
2021/06/12 05:01:57;;;;;;;6.07;4.40;;;20.90;60.80;;;;;;5095540;28;20030;-70
2021/06/12 05:04:23;;;;;;;9.27;4.25;;;20.90;60.50;;;;;;5096657;28;20028;-70
2021/06/12 05:06:49;;;;;;;6.97;4.10;;;20.90;60.10;;;;;;5095430;28;20154;-69
2021/06/12 05:09:15;;;;;;;5.85;4.63;;;20.90;59.90;;;;;;5096788;28;20115;-70
2021/06/12 05:11:41;;;;;;;6.75;4.63;;;21.00;60.10;;;;;;5096656;28;20020;-70
2021/06/12 05:14:06;;;;;;;7.43;4.55;;;21.00;59.70;;;;;;5096543;28;20028;-70
2021/06/12 05:16:34;;;;;;;9.80;4.32;;;21.00;59.60;;;;;;5096593;28;20020;-70
2021/06/12 05:19:00;;;;;;;6.40;4.72;;;21.00;59.70;;;;;;5095219;28;20528;-70
2021/06/12 05:21:27;;;;;;;6.35;4.57;;;20.90;59.70;;;;;;5095243;28;20111;-70
2021/06/12 05:23:53;;;;;;;5.05;4.35;;;21.00;59.80;;;;;;5096365;28;20073;-70
2021/06/12 05:26:19;;;;;;;6.03;4.30;;;21.00;59.90;;;;;;5096425;28;20024;-70
2021/06/12 05:28:45;;;;;;;7.88;4.80;;;21.00;59.80;;;;;;5096376;28;20032;-70
2021/06/12 05:31:11;;;;;;;6.25;4.38;;;21.10;59.90;;;;;;5096284;28;20028;-70
2021/06/12 05:33:37;;;;;;;6.10;4.18;;;21.10;59.90;;;;;;5095874;28;20489;-70
2021/06/12 05:36:05;;;;;;;6.65;4.00;;;21.10;59.80;;;;;;5094932;28;20021;-70
2021/06/12 05:38:32;;;;;;;6.75;3.95;;;21.20;59.80;;;;;;5096103;28;20024;-70
2021/06/12 05:40:58;;;;;;;11.23;4.05;;;21.30;59.60;;;;;;5094751;28;20032;-70
2021/06/12 05:43:24;;;;;;;5.47;4.43;;;21.30;59.40;;;;;;5116539;28;20031;-70
2021/06/12 05:45:50;;;;;;;9.07;4.20;;;21.40;59.50;;;;;;5116393;27;20023;-70
2021/06/12 05:48:16;;;;;;;4.45;3.67;;;21.50;59.30;;;;;;5116365;28;20031;-70
2021/06/12 05:50:42;;;;;;;4.65;3.92;;;21.60;59.40;;;;;;5116203;28;20051;-70
2021/06/12 05:53:08;;;;;;;8.48;3.90;;;21.70;59.30;;;;;;5116176;28;20035;-70
2021/06/12 05:55:34;;;;;;;4.05;3.55;;;21.80;59.30;;;;;;5116263;28;20473;-70
2021/06/12 05:58:00;;;;;;;5.95;3.33;;;21.90;59.20;;;;;;5116253;27;20019;-70
2021/06/12 06:00:26;;;;;;;5.32;3.55;;;22.10;58.90;;;;;;5113507;28;20056;-70
2021/06/12 06:02:52;;;;;;;5.43;3.85;;;22.10;58.00;;;;;;5115818;28;20031;-70
2021/06/12 06:05:18;;;;;;;4.20;3.40;;;22.20;57.80;;;;;;5114799;28;20027;-70
2021/06/12 06:07:43;;;;;;;4.22;3.40;;;22.20;57.50;;;;;;5112320;27;20028;-70
2021/06/12 06:10:10;;;;;;;4.07;3.33;;;22.30;57.50;;;;;;5098860;27;20103;-70
2021/06/12 06:12:36;;;;;;;6.93;3.90;;;22.30;57.10;;;;;;5094246;28;20020;-70
2021/06/12 06:15:03;;;;;;;5.95;3.83;;;22.30;56.80;;;;;;5095353;28;20024;-70
2021/06/12 06:17:29;;;;;;;5.70;3.33;;;22.40;56.90;;;;;;5094106;28;20505;-70
2021/06/12 06:19:55;;;;;;;5.32;3.53;;;22.40;56.80;;;;;;5095392;28;20032;-70
2021/06/12 06:22:21;;;;;;;6.57;3.15;;;22.50;56.70;;;;;;5093987;28;20016;-70
2021/06/12 06:24:46;;;;;;;6.35;3.22;;;22.50;56.70;;;;;;5095244;28;20097;-70
2021/06/12 06:27:12;;;;;;;3.95;3.20;;;22.60;56.70;;;;;;5094799;28;20495;-70
2021/06/12 06:29:38;;;;;;;6.90;3.35;;;22.70;56.30;;;;;;5095123;28;20028;-70
2021/06/12 06:32:04;;;;;;;4.38;3.13;;;22.70;55.80;;;;;;5095154;28;20358;-70
2021/06/12 06:34:30;;;;;;;3.38;3.08;;;22.90;55.90;;;;;;5097648;28;20165;-70
2021/06/12 06:36:56;;;;;;;3.90;3.50;;;22.90;55.50;;;;;;5094622;28;20144;-70
2021/06/12 06:39:22;;;;;;;8.35;3.42;;;23.00;55.40;;;;;;5104214;28;20451;-70
2021/06/12 06:41:47;;;;;;;4.70;3.08;;;23.10;55.00;;;;;;5113865;28;20027;-70
2021/06/12 06:44:13;;;;;;;3.63;3.15;;;23.20;55.00;;;;;;5115133;28;20026;-70
2021/06/12 06:46:39;;;;;;;6.43;3.47;;;23.30;54.70;;;;;;5115222;28;20094;-70
2021/06/12 06:49:05;;;;;;;4.55;3.50;;;23.30;54.50;;;;;;5115183;28;20038;-71
2021/06/12 06:51:31;;;;;;;6.10;3.20;;;23.40;54.30;;;;;;5113549;28;20048;-71
2021/06/12 06:53:56;;;;;;;5.38;3.78;;;23.50;54.20;;;;;;5114964;28;20055;-70
2021/06/12 06:56:22;;;;;;;4.45;3.53;;;23.60;53.10;;;;;;5114985;28;20354;-70
2021/06/12 06:58:48;;;;;;;5.38;3.78;;;23.70;53.50;;;;;;5113639;28;20024;-70
2021/06/12 07:01:14;;;;;;;8.15;3.88;;;23.70;53.00;;;;;;5112928;28;20095;-70
2021/06/12 07:03:40;;;;;;;4.57;3.97;;;23.80;52.90;;;;;;5114779;28;20098;-70
2021/06/12 07:06:06;;;;;;;4.45;3.28;;;23.80;52.70;;;;;;5114445;28;20472;-70
2021/06/12 07:08:31;;;;;;;5.40;4.07;;;23.70;52.90;;;;;;5098728;28;20481;-70
2021/06/12 07:10:57;;;;;;;3.80;3.50;;;23.70;52.80;;;;;;5092994;28;20107;-70
2021/06/12 07:13:24;;;;;;;3.97;3.50;;;23.60;53.10;;;;;;5093243;28;20036;-70
2021/06/12 07:15:51;;;;;;;5.25;3.30;;;23.70;53.80;;;;;;5093917;28;20533;-71
2021/06/12 07:18:17;;;;;;;3.92;3.50;;;23.70;53.80;;;;;;5094251;28;20034;-70
2021/06/12 07:20:46;;;;;;;4.35;3.35;;;23.70;53.60;;;;;;5094144;28;20028;-70
2021/06/12 07:23:15;;;;;;;4.57;3.50;;;23.80;53.80;;;;;;5094146;28;20509;-70
2021/06/12 07:25:40;;;;;;;5.72;3.88;;;23.90;53.50;;;;;;5094029;28;20024;-70
2021/06/12 07:28:06;;;;;;;3.47;3.13;;;24.00;53.40;;;;;;5094059;28;20026;-70
2021/06/12 07:30:38;;;;;;;4.35;3.95;;;24.00;53.10;;;;;;5093972;28;20474;-70
2021/06/12 07:33:08;;;;;;;3.95;2.90;;;24.10;52.80;;;;;;5093915;28;20173;-70
2021/06/12 07:35:34;;;;;;;4.32;3.42;;;24.10;53.10;;;;;;5093781;28;20113;-70
2021/06/12 07:38:00;;;;;;;4.63;3.55;;;24.20;52.70;;;;;;5092645;28;20461;-70
2021/06/12 07:40:26;;;;;;;4.55;4.00;;;24.20;52.60;;;;;;5112837;28;20381;-70
2021/06/12 07:42:52;;;;;;;3.47;3.17;;;24.30;52.50;;;;;;5112773;28;20015;-70
2021/06/12 07:45:17;;;;;;;7.70;4.70;;;24.40;52.70;;;;;;5112953;28;20020;-70
2021/06/12 07:47:43;;;;;;;4.25;3.50;;;24.40;52.10;;;;;;5092365;28;20029;-70
2021/06/12 07:50:09;;;;;;;4.43;4.03;;;24.40;52.10;;;;;;5093632;28;20083;-70
2021/06/12 07:52:35;;;;;;;5.35;4.20;;;24.40;52.30;;;;;;5093522;28;20070;-70
2021/06/12 07:55:01;;;;;;;4.47;4.07;;;24.60;52.30;;;;;;5093281;28;20030;-70
2021/06/12 07:57:26;;;;;;;6.22;4.53;;;24.60;52.30;;;;;;5093122;28;20028;-70
2021/06/12 07:59:52;;;;;;;4.53;3.95;;;24.80;52.30;;;;;;5106997;28;20031;-71
2021/06/12 08:02:18;;;;;;;3.70;3.40;;;24.90;52.00;;;;;;5113706;28;20088;-70
2021/06/12 08:04:44;;;;;;;4.55;3.60;;;25.00;51.80;;;;;;5112423;28;20023;-70
2021/06/12 08:07:10;;;;;;;4.97;4.35;;;25.30;52.30;;;;;;5113828;28;20028;-71
2021/06/12 08:09:36;;;;;;;5.10;4.50;;;25.50;51.30;;;;;;5113695;27;20366;-70
2021/06/12 08:12:02;;;;;;;6.22;5.25;;;25.60;50.70;;;;;;5108090;28;20028;-70
2021/06/12 08:14:27;;;;;;;5.00;4.50;;;25.80;49.70;;;;;;5093157;28;20107;-69
2021/06/12 08:16:53;;;;;;;8.43;4.68;;;25.80;49.70;;;;;;5091874;28;20107;-69
2021/06/12 08:19:19;;;;;;;5.93;4.43;;;26.00;49.80;;;;;;5094684;28;20032;-69
2021/06/12 08:21:46;;;;;;;5.70;4.93;;;26.00;49.50;;;;;;5091028;28;20023;-69
2021/06/12 08:24:12;;;;;;;9.18;4.80;;;26.20;49.00;;;;;;5092158;28;20024;-69
2021/06/12 08:26:38;;;;;;;8.07;4.43;;;26.20;49.30;;;;;;5091769;28;20077;-69
2021/06/12 08:29:04;;;;;;;7.18;5.05;;;26.40;49.10;;;;;;5092704;28;20032;-69
2021/06/12 08:31:34;;;;;;;5.45;4.80;;;26.40;48.30;;;;;;5092920;28;20406;-71
2021/06/12 08:34:00;;;;;;;5.93;4.55;;;26.60;48.30;;;;;;5092924;28;20099;-69
2021/06/12 08:36:26;;;;;;;5.20;4.70;;;26.60;48.50;;;;;;5092861;28;20048;-69
2021/06/12 08:38:51;;;;;;;5.72;4.22;;;26.70;48.00;;;;;;5110271;28;20539;-69
2021/06/12 08:41:18;;;;;;;9.57;5.50;;;26.80;48.00;;;;;;5113175;28;20100;-71
2021/06/12 08:43:44;;;;;;;12.70;5.57;;;26.80;47.20;;;;;;5113133;28;20028;-71
2021/06/12 08:46:10;;;;;;;6.47;5.28;;;26.70;47.20;;;;;;5113412;28;20016;-70
2021/06/12 08:48:36;;;;;;;10.43;6.40;;;26.60;47.50;;;;;;5113100;28;20094;-71
2021/06/12 08:51:02;;;;;;;6.80;5.53;;;26.60;47.60;;;;;;5111091;28;20123;-70
2021/06/12 08:53:31;;;;;;;6.53;5.50;;;26.50;47.90;;;;;;5111839;28;20035;-71
2021/06/12 08:56:00;;;;;;;10.25;5.47;;;26.40;48.00;;;;;;5113129;28;20015;-70
2021/06/12 08:58:26;;;;;;;7.85;5.70;;;26.40;48.50;;;;;;5113096;28;20027;-71
2021/06/12 09:00:52;;;;;;;6.78;5.95;;;26.40;48.60;;;;;;5113162;28;20382;-71
2021/06/12 09:03:22;;;;;;;8.30;5.68;;;26.40;48.80;;;;;;5112983;28;20072;-70
2021/06/12 09:05:54;;;;;;;11.00;5.57;;;26.40;49.00;;;;;;5113311;28;20023;-71
2021/06/12 09:08:21;;;;;;;7.55;6.03;;;26.40;48.90;;;;;;5113095;28;20046;-70
2021/06/12 09:11:06;;;;;;;7.88;5.97;;;26.40;49.00;;;;;;5113046;28;20016;-70
2021/06/12 09:13:39;;;;;;;9.57;7.00;;;26.50;49.10;;;;;;5113027;28;20024;-71
2021/06/12 09:16:08;;;;;;;9.77;6.30;;;26.50;48.90;;;;;;5111498;28;20016;-72
2021/06/12 09:18:34;;;;;;;14.10;8.50;;;26.60;49.10;;;;;;5112938;28;20338;-71
2021/06/12 09:21:01;;;;;;;8.10;5.75;;;26.60;48.90;;;;;;5111657;28;20108;-71
2021/06/12 09:23:27;;;;;;;10.80;5.65;;;26.70;49.00;;;;;;5109559;28;20020;-71
2021/06/12 09:25:53;;;;;;;11.77;7.15;;;26.80;49.20;;;;;;5092370;28;20028;-70
2021/06/12 09:28:19;;;;;;;8.77;7.10;;;26.90;48.50;;;;;;5092496;28;20036;-71
2021/06/12 09:30:45;;;;;;;11.98;7.10;;;27.00;48.20;;;;;;5100129;28;20130;-71
2021/06/12 09:33:10;;;;;;;8.77;7.07;;;27.00;47.90;;;;;;5112663;28;20099;-71
2021/06/12 09:35:38;;;;;;;9.77;6.97;;;27.00;47.70;;;;;;5114494;28;20024;-71
2021/06/12 09:38:25;;;;;;;8.38;6.97;;;27.00;47.60;;;;;;5116558;28;20023;-71
2021/06/12 09:40:50;;;;;;;8.25;5.97;;;27.00;47.60;;;;;;5114032;28;20020;-71
2021/06/12 09:43:27;;;;;;;8.20;7.00;;;27.10;47.90;;;;;;5104663;28;20075;-71
2021/06/12 09:45:52;;;;;;;8.90;7.40;;;27.20;47.80;;;;;;5116403;28;20027;-71
2021/06/12 09:48:19;;;;;;;8.07;6.57;;;27.20;47.50;;;;;;5116180;28;20063;-71
2021/06/12 09:50:46;;;;;;;11.13;6.10;;;27.30;47.30;;;;;;5116061;28;20069;-70
2021/06/12 09:53:18;;;;;;;8.38;5.93;;;27.40;47.60;;;;;;5116276;28;20106;-71
2021/06/12 09:55:44;;;;;;;9.48;5.90;;;27.50;47.50;;;;;;5116394;28;20019;-71
2021/06/12 09:58:10;;;;;;;8.57;6.88;;;27.70;47.20;;;;;;5115772;28;20091;-71
2021/06/12 10:00:38;;;;;;;8.32;6.22;;;27.70;46.90;;;;;;5116069;28;20050;-71
2021/06/12 10:03:16;;;;;;;11.63;6.75;;;27.80;47.00;;;;;;5116018;28;20483;-70
2021/06/12 10:05:42;;;;;;;8.95;6.90;;;27.90;46.80;;;;;;5109931;27;20032;-71
2021/06/12 10:08:08;;;;;;;14.90;7.85;;;28.00;46.40;;;;;;5095635;28;20481;-71
2021/06/12 10:10:35;;;;;;;7.28;6.57;;;28.00;46.60;;;;;;5095454;28;20073;-71
2021/06/12 10:13:04;;;;;;;6.00;5.43;;;28.10;46.80;;;;;;5095377;28;20019;-71
2021/06/12 10:15:30;;;;;;;13.38;7.90;;;28.20;47.10;;;;;;5095248;28;20024;-71
2021/06/12 10:17:56;;;;;;;6.50;5.80;;;28.30;46.30;;;;;;5094072;28;20031;-71
2021/06/12 10:20:24;;;;;;;7.93;6.70;;;28.40;46.30;;;;;;5100605;28;20224;-69
2021/06/12 10:22:53;;;;;;;9.50;6.53;;;28.50;46.20;;;;;;5100376;28;20024;-71
2021/06/12 10:25:20;;;;;;;8.13;6.75;;;28.50;45.90;;;;;;5114252;27;20035;-71
2021/06/12 10:27:47;;;;;;;7.53;5.63;;;28.60;45.80;;;;;;5115548;28;20019;-71
2021/06/12 10:30:16;;;;;;;8.57;7.25;;;28.60;46.30;;;;;;5115460;28;20023;-71
2021/06/12 10:32:49;;;;;;;8.23;6.53;;;28.60;46.00;;;;;;5114099;28;20019;-71
2021/06/12 10:35:25;;;;;;;7.40;5.50;;;28.60;45.50;;;;;;5114075;28;20024;-71
2021/06/12 10:40:48;;;;;;;6.15;5.55;;;28.70;45.80;;;;;;5094553;28;20052;-71
2021/06/12 10:43:25;;;;;;;6.23;5.63;;;28.80;45.10;;;;;;5093701;28;20050;-71
2021/06/12 10:46:06;;;;;;;7.72;4.97;;;28.80;44.20;;;;;;5094626;28;20028;-69
2021/06/12 10:48:56;;;;;;;10.38;5.63;;;28.80;44.60;;;;;;5093458;28;20054;-69
2021/06/12 10:51:24;;;;;;;7.22;6.10;;;28.90;44.30;;;;;;5109655;28;20393;-71
2021/06/12 10:54:23;;;;;;;5.75;5.15;;;28.90;43.50;;;;;;5094707;28;20024;-71
2021/06/12 10:57:11;;;;;;;8.77;5.32;;;29.00;44.10;;;;;;5105166;28;20032;-71
2021/06/12 10:59:45;;;;;;;6.43;5.32;;;29.10;43.90;;;;;;5113756;28;20016;-69
2021/06/12 11:02:26;;;;;;;9.20;6.15;;;29.20;42.40;;;;;;5114907;28;20490;-69
2021/06/12 11:07:36;;;;;;;5.75;4.82;;;29.30;41.90;;;;;;5114804;28;20028;-69
2021/06/12 11:10:14;;;;;;;6.80;5.40;;;29.40;41.70;;;;;;5114039;28;20038;-69
2021/06/12 11:12:44;;;;;;;5.40;4.25;;;29.50;41.80;;;;;;5114767;28;20164;-69
2021/06/12 11:15:24;;;;;;;8.35;5.15;;;29.60;42.20;;;;;;5113035;28;20106;-69
2021/06/12 11:18:21;;;;;;;13.80;5.28;;;29.70;41.80;;;;;;5114587;27;20019;-69
2021/06/12 11:21:10;;;;;;;6.72;4.95;;;29.70;42.00;;;;;;5114592;28;20377;-69
2021/06/12 11:23:56;;;;;;;8.50;4.68;;;29.80;41.80;;;;;;5113084;28;20024;-69
2021/06/12 11:26:23;;;;;;;6.38;5.20;;;29.80;41.90;;;;;;5093455;28;20059;-69
2021/06/12 11:29:11;;;;;;;9.63;4.45;;;29.80;40.20;;;;;;5093419;28;20374;-69
2021/06/12 11:31:38;;;;;;;6.60;4.72;;;29.90;41.20;;;;;;5094036;28;20024;-69
2021/06/12 11:34:17;;;;;;;5.22;4.72;;;30.00;40.60;;;;;;5103407;28;20047;-71
2021/06/12 11:36:44;;;;;;;6.55;4.78;;;30.10;41.00;;;;;;5093804;28;20026;-69
2021/06/12 11:39:11;;;;;;;5.10;3.85;;;30.20;41.10;;;;;;5110634;27;20074;-69
2021/06/12 11:41:37;;;;;;;4.35;3.90;;;30.40;40.60;;;;;;5112738;28;20358;-69
2021/06/12 11:44:03;;;;;;;4.95;3.90;;;30.50;40.20;;;;;;5113600;28;20031;-70
2021/06/12 11:46:35;;;;;;;15.65;5.18;;;30.70;39.60;;;;;;5112325;28;20027;-69
2021/06/12 11:49:05;;;;;;;3.85;3.47;;;30.80;38.20;;;;;;5109791;28;20039;-69
2021/06/12 11:51:36;;;;;;;5.07;3.13;;;31.00;37.70;;;;;;5100431;27;20036;-69
2021/06/12 11:54:08;;;;;;;4.50;4.10;;;31.10;37.90;;;;;;5093403;28;20150;-69
2021/06/12 11:56:38;;;;;;;5.82;4.00;;;31.30;37.10;;;;;;5097899;28;20417;-69
2021/06/12 11:59:06;;;;;;;3.90;3.30;;;31.40;37.70;;;;;;5113310;28;20513;-69
2021/06/12 12:01:40;;;;;;;5.40;3.40;;;31.70;37.60;;;;;;5112368;28;20054;-69
2021/06/12 12:04:12;;;;;;;5.03;3.15;;;31.90;37.50;;;;;;5112557;28;20024;-69
2021/06/12 12:06:38;;;;;;;5.95;3.40;;;32.20;37.30;;;;;;5110396;28;20027;-69
2021/06/12 12:09:06;;;;;;;6.50;3.97;;;32.40;35.60;;;;;;5101966;28;20135;-70
2021/06/12 12:11:32;;;;;;;4.10;3.35;;;32.60;34.50;;;;;;5092983;28;20039;-70
2021/06/12 12:14:04;;;;;;;3.83;3.17;;;32.80;33.90;;;;;;5111129;28;20019;-70
2021/06/12 12:16:30;;;;;;;5.78;3.60;;;32.90;34.20;;;;;;5112318;28;20084;-70
2021/06/12 12:18:58;;;;;;;7.03;3.05;;;32.90;33.30;;;;;;5113326;28;20020;-70
2021/06/12 12:21:38;;;;;;;5.60;2.75;;;32.90;34.40;;;;;;5113371;28;20042;-70
2021/06/12 12:24:07;;;;;;;11.07;2.10;;;32.70;31.90;;;;;;5092884;28;20073;-69
2021/06/12 12:26:33;;;;;;;3.53;2.28;;;32.40;29.70;;;;;;5101733;28;20027;-69
2021/06/12 12:29:08;;;;;;;3.60;2.25;;;32.20;30.40;;;;;;5113247;28;20390;-69
2021/06/12 12:31:40;;;;;;;2.35;2.13;;;32.00;31.50;;;;;;5096186;28;20080;-69
2021/06/12 12:34:06;;;;;;;2.38;2.17;;;31.90;32.70;;;;;;5112492;28;20023;-69
2021/06/12 12:36:44;;;;;;;1.60;1.40;;;31.70;31.40;;;;;;5112170;28;20102;-69
2021/06/12 12:39:10;;;;;;;2.47;1.50;;;31.50;31.20;;;;;;5111522;28;20027;-69
2021/06/12 12:41:36;;;;;;;2.33;1.35;;;31.40;30.00;;;;;;5111844;28;20026;-69
2021/06/12 12:44:16;;;;;;;2.83;1.48;;;31.20;30.70;;;;;;5095111;28;20028;-69
2021/06/12 12:46:44;;;;;;;1.63;1.35;;;31.10;31.20;;;;;;5110615;28;20028;-69
2021/06/12 12:49:17;;;;;;;2.00;1.70;;;31.00;32.10;;;;;;5111667;28;20024;-69
2021/06/12 12:51:50;;;;;;;2.13;1.83;;;30.90;32.50;;;;;;5110123;28;20077;-69
2021/06/12 12:54:15;;;;;;;5.03;2.10;;;30.90;32.90;;;;;;5112700;28;20038;-70
2021/06/12 12:56:48;;;;;;;1.60;1.50;;;30.90;32.90;;;;;;5094009;28;20012;-69